createdAt,value
2022-10-23T00:03:58.557Z,100894.47
2022-10-23T00:09:02.132Z,100884.34
2022-10-23T00:14:08.035Z,100898.56
2022-10-23T00:19:12.906Z,100902.91
2022-10-23T00:24:16.376Z,100896.84
2022-10-23T00:29:19.759Z,100896.72
2022-10-23T00:34:24.926Z,100899.69
2022-10-23T00:39:28.313Z,100894.19
2022-10-23T00:45:10.443Z,100900.63
2022-10-23T00:50:15.446Z,100896.56
2022-10-23T00:55:20.616Z,100887.84
2022-10-23T01:00:26.612Z,100884.50
2022-10-23T01:05:33.797Z,100873.63
2022-10-23T01:10:41.538Z,100874.78
2022-10-23T01:15:52.860Z,100872.50
2022-10-23T01:21:01.015Z,100869.13
2022-10-23T01:26:16.630Z,100873.63
2022-10-23T01:31:26.010Z,100882.06
2022-10-23T01:36:30.435Z,100872.78
2022-10-23T01:41:39.314Z,100861.50
2022-10-23T01:46:45.235Z,100853.34
2022-10-23T01:51:51.947Z,100840.13
2022-10-23T01:56:55.632Z,100840.41
2022-10-23T02:02:04.781Z,100845.38
2022-10-23T02:07:08.512Z,100841.72
2022-10-23T02:12:15.320Z,100846.38
2022-10-23T02:17:25.445Z,100848.22
2022-10-23T02:22:31.928Z,100838.38
2022-10-23T02:27:38.940Z,100827.53
2022-10-23T02:32:48.765Z,100833.19
2022-10-23T02:37:54.470Z,100842.44
2022-10-23T02:43:04.129Z,100820.69
2022-10-23T02:48:14.510Z,100826.44
2022-10-23T02:53:24.979Z,100833.31
2022-10-23T02:58:30.467Z,100825.44
2022-10-23T03:03:39.464Z,100826.69
2022-10-23T03:08:44.272Z,100811.38
2022-10-23T03:13:47.703Z,100812.94
2022-10-23T03:18:52.623Z,100808.16
2022-10-23T03:23:56.083Z,100794.09
2022-10-23T03:29:06.884Z,100795.47
2022-10-23T03:34:19.333Z,100796.25
2022-10-23T03:39:23.282Z,100796.81
2022-10-23T03:44:26.733Z,100782.34
2022-10-23T03:49:31.950Z,100792.56
2022-10-23T03:54:40.592Z,100780.72
2022-10-23T03:59:43.991Z,100779.91
2022-10-23T04:04:48.836Z,100781.44
2022-10-23T04:09:52.452Z,100788.00
2022-10-23T04:14:55.868Z,100790.66
2022-10-23T04:20:00.715Z,100784.91
2022-10-23T04:25:04.466Z,100785.00
2022-10-23T04:30:10.601Z,100788.03
2022-10-23T04:35:16.692Z,100789.56
2022-10-23T04:40:20.123Z,100788.25
2022-10-23T04:45:23.929Z,100777.19
2022-10-23T04:50:28.882Z,100778.38
2022-10-23T04:55:51.666Z,100783.38
2022-10-23T05:01:03.177Z,100777.00
2022-10-23T05:06:08.874Z,100783.47
2022-10-23T05:11:26.014Z,100773.94
2022-10-23T05:16:37.413Z,100770.31
2022-10-23T05:21:42.612Z,100768.13
2022-10-23T05:26:46.194Z,100774.00
2022-10-23T05:31:52.114Z,100750.16
2022-10-23T05:36:57.953Z,100751.13
2022-10-23T05:42:01.488Z,100758.59
2022-10-23T05:47:05.098Z,100758.84
2022-10-23T05:52:28.543Z,100760.25
2022-10-23T05:57:52.254Z,100746.22
2022-10-23T06:03:06.531Z,100746.53
2022-10-23T06:08:17.981Z,100747.25
2022-10-23T06:13:23.903Z,100752.16
2022-10-23T06:18:27.639Z,100748.25
2022-10-23T06:23:48.235Z,100750.09
2022-10-23T06:29:03.667Z,100741.81
2022-10-23T06:34:07.143Z,100741.84
2022-10-23T06:39:12.097Z,100740.75
2022-10-23T06:44:35.013Z,100735.28
2022-10-23T06:49:45.358Z,100730.34
2022-10-23T06:54:50.217Z,100729.94
2022-10-23T07:00:01.182Z,100718.25
2022-10-23T07:05:09.949Z,100719.97
2022-10-23T07:10:18.557Z,100721.00
2022-10-23T07:15:27.666Z,100721.84
2022-10-23T07:20:31.423Z,100712.00
2022-10-23T07:25:37.186Z,100719.97
2022-10-23T07:30:42.889Z,100715.69
2022-10-23T07:35:48.449Z,100705.91
2022-10-23T07:41:01.062Z,100706.59
2022-10-23T07:46:04.687Z,100707.63
2022-10-23T07:51:15.350Z,100700.91
2022-10-23T07:56:29.728Z,100698.44
2022-10-23T08:01:51.457Z,100701.69
2022-10-23T08:06:57.979Z,100696.25
2022-10-23T08:12:03.903Z,100690.81
2022-10-23T08:17:09.575Z,100675.84
2022-10-23T08:22:39.443Z,100681.03
2022-10-23T08:27:45.246Z,100684.16
2022-10-23T08:32:50.587Z,100681.31
2022-10-23T08:37:54.118Z,100672.28
2022-10-23T08:43:04.580Z,100673.84
2022-10-23T08:48:14.438Z,100669.66
2022-10-23T08:53:53.890Z,100649.75
2022-10-23T08:59:05.217Z,100639.53
2022-10-23T09:04:11.326Z,100656.25
2022-10-23T09:09:30.264Z,100653.09
2022-10-23T09:14:49.984Z,100643.00
2022-10-23T09:20:07.206Z,100639.13
2022-10-23T09:25:12.014Z,100642.28
2022-10-23T09:30:31.885Z,100652.34
2022-10-23T09:35:35.230Z,100661.38
2022-10-23T09:40:42.134Z,100653.28
2022-10-23T09:45:58.377Z,100661.09
2022-10-23T09:51:04.409Z,100653.56
2022-10-23T09:56:24.636Z,100640.34
2022-10-23T10:01:33.611Z,100635.25
2022-10-23T10:07:03.669Z,100629.06
2022-10-23T10:12:19.314Z,100627.38
2022-10-23T10:17:35.751Z,100615.28
2022-10-23T10:22:41.816Z,100606.81
2022-10-23T10:27:53.948Z,100596.63
2022-10-23T10:33:03.882Z,100594.69
2022-10-23T10:38:19.372Z,100583.94
2022-10-23T10:43:30.351Z,100577.22
2022-10-23T10:48:47.331Z,100565.97
2022-10-23T10:54:18.565Z,100562.16
2022-10-23T10:59:24.614Z,100548.88
2022-10-23T11:04:35.189Z,100549.78
2022-10-23T11:09:39.516Z,100547.53
2022-10-23T11:14:43.679Z,100543.63
2022-10-23T11:19:50.386Z,100528.91
2022-10-23T11:25:19.219Z,100525.97
2022-10-23T11:30:25.026Z,100519.09
2022-10-23T11:35:43.742Z,100507.88
2022-10-23T11:40:52.111Z,100493.78
2022-10-23T11:45:55.726Z,100496.38
2022-10-23T11:51:04.245Z,100478.28
2022-10-23T11:56:27.361Z,100473.72
2022-10-23T12:01:37.383Z,100462.81
2022-10-23T12:06:43.740Z,100450.47
2022-10-23T12:11:51.231Z,100446.38
2022-10-23T12:16:54.862Z,100447.69
2022-10-23T12:22:02.230Z,100425.34
2022-10-23T12:27:15.943Z,100418.88
2022-10-23T12:32:40.450Z,100417.22
2022-10-23T12:37:55.882Z,100405.56
2022-10-23T12:43:00.411Z,100395.88
2022-10-23T12:48:03.926Z,100379.41
2022-10-23T12:53:16.422Z,100367.94
2022-10-23T12:58:21.316Z,100359.59
2022-10-23T13:03:27.256Z,100359.97
2022-10-23T13:08:35.301Z,100354.78
2022-10-23T13:13:56.995Z,100348.91
2022-10-23T13:19:00.385Z,100346.88
2022-10-23T13:24:05.601Z,100329.84
2022-10-23T13:29:20.614Z,100312.78
2022-10-23T13:34:26.511Z,100290.25
2022-10-23T13:39:33.851Z,100292.75
2022-10-23T13:44:37.969Z,100303.31
2022-10-23T13:49:41.341Z,100312.22
2022-10-23T13:54:46.359Z,100306.78
2022-10-23T13:59:49.719Z,100310.41
2022-10-23T14:04:53.120Z,100289.88
2022-10-23T14:09:57.868Z,100291.34
2022-10-23T14:15:01.199Z,100291.69
2022-10-23T14:20:06.294Z,100281.00
2022-10-23T14:25:11.366Z,100257.88
2022-10-23T14:30:15.103Z,100257.88
2022-10-23T14:35:18.479Z,100249.09
2022-10-23T14:40:23.147Z,100231.50
2022-10-23T14:45:26.555Z,100213.41
2022-10-23T14:50:30.747Z,100236.59
2022-10-23T14:55:35.511Z,100232.31
2022-10-23T15:00:39.292Z,100196.69
2022-10-23T15:05:43.265Z,100186.72
2022-10-23T15:10:47.981Z,100175.84
2022-10-23T15:15:51.351Z,100138.50
2022-10-23T15:20:54.739Z,100157.00
2022-10-23T15:26:00.339Z,100149.06
2022-10-23T15:31:04.043Z,100155.47
2022-10-23T15:36:07.742Z,100151.53
2022-10-23T15:41:17.463Z,100140.84
2022-10-23T15:46:20.790Z,100125.44
2022-10-23T15:51:24.134Z,100137.56
2022-10-23T15:56:28.942Z,100136.41
2022-10-23T16:01:32.363Z,100122.59
2022-10-23T16:06:35.991Z,100118.25
2022-10-23T16:11:41.491Z,100101.50
2022-10-23T16:16:44.974Z,100087.84
2022-10-23T16:21:48.323Z,100084.16
2022-10-23T16:26:56.245Z,100085.69
2022-10-23T16:32:00.093Z,100080.34
2022-10-23T16:37:03.443Z,100072.03
2022-10-23T16:42:24.078Z,100070.16
2022-10-23T16:47:39.320Z,100093.44
2022-10-23T16:52:43.029Z,100065.00
2022-10-23T16:57:48.057Z,100059.63
2022-10-23T17:02:51.458Z,100052.16
2022-10-23T17:07:54.844Z,100034.00
2022-10-23T17:12:59.609Z,100004.63
2022-10-23T17:18:03.001Z,100019.75
2022-10-23T17:23:06.440Z,100028.34
2022-10-23T17:28:11.255Z,100018.34
2022-10-23T17:33:14.959Z,100018.63
2022-10-23T17:38:19.104Z,100037.81
2022-10-23T17:43:23.851Z,100038.59
2022-10-23T17:48:27.611Z,100051.66
2022-10-23T17:53:31.351Z,100076.28
2022-10-23T17:58:36.747Z,100079.47
2022-10-23T18:03:41.350Z,100104.59
2022-10-23T18:08:45.319Z,100140.31
2022-10-23T18:13:50.612Z,100150.88
2022-10-23T18:18:54.227Z,100166.53
2022-10-23T18:23:59.578Z,100145.38
2022-10-23T18:29:07.420Z,100142.84
2022-10-23T18:34:15.819Z,100141.56
2022-10-23T18:39:22.361Z,100135.81
2022-10-23T18:44:28.955Z,100154.38
2022-10-23T18:49:32.301Z,100157.13
2022-10-23T18:54:35.702Z,100173.66
2022-10-23T18:59:40.450Z,100168.47
2022-10-23T19:04:43.794Z,100173.16
2022-10-23T19:09:47.220Z,100168.59
2022-10-23T19:14:52.186Z,100172.09
2022-10-23T19:19:57.058Z,100176.59
2022-10-23T19:25:07.359Z,100170.44
2022-10-23T19:30:13.722Z,100173.03
2022-10-23T19:35:19.572Z,100175.69
2022-10-23T19:40:24.189Z,100177.19
2022-10-23T19:45:28.993Z,100171.25
2022-10-23T19:50:32.485Z,100165.00
2022-10-23T19:55:35.869Z,100169.25
2022-10-23T20:00:40.591Z,100167.09
2022-10-23T20:05:45.515Z,100157.66
2022-10-23T20:10:48.979Z,100143.25
2022-10-23T20:15:53.682Z,100122.94
2022-10-23T20:20:57.094Z,100041.72
2022-10-23T20:26:07.863Z,100103.03
2022-10-23T20:31:12.666Z,100059.53
2022-10-23T20:36:25.105Z,100096.94
2022-10-23T20:41:28.980Z,100085.22
2022-10-23T20:46:33.983Z,100044.72
2022-10-23T20:51:37.651Z,99961.34
2022-10-23T20:56:41.062Z,100011.72
2022-10-23T21:01:49.482Z,100005.16
2022-10-23T21:07:11.167Z,99999.59
2022-10-23T21:12:14.948Z,100008.59
2022-10-23T21:17:19.693Z,100026.59
2022-10-23T21:22:23.087Z,100032.72
2022-10-23T21:27:27.003Z,100031.47
2022-10-23T21:32:31.661Z,100054.19
2022-10-23T21:37:34.999Z,100052.13
2022-10-23T21:42:38.368Z,100064.31
2022-10-23T21:47:43.366Z,100072.16
2022-10-23T21:52:51.385Z,100050.75
2022-10-23T21:57:54.738Z,100047.53
2022-10-23T22:02:59.435Z,100044.50
2022-10-23T22:08:02.810Z,100038.19
2022-10-23T22:13:06.165Z,100031.84
2022-10-23T22:18:10.873Z,100027.59
2022-10-23T22:23:14.214Z,100013.16
2022-10-23T22:28:17.849Z,100034.78
2022-10-23T22:33:22.642Z,100045.91
2022-10-23T22:38:26.014Z,100058.63
2022-10-23T22:43:29.838Z,100056.09
2022-10-23T22:48:34.650Z,100060.69
2022-10-23T22:53:38.183Z,100073.44
2022-10-23T22:58:41.631Z,100070.88
2022-10-23T23:03:46.895Z,100062.63
2022-10-23T23:08:51.017Z,100067.91
2022-10-23T23:13:54.459Z,100056.53
2022-10-23T23:19:01.106Z,100063.94
2022-10-23T23:24:04.901Z,100062.69
2022-10-23T23:29:08.223Z,100057.72
2022-10-23T23:34:12.962Z,100054.78
2022-10-23T23:39:16.328Z,100052.03
2022-10-23T23:44:19.729Z,100039.78
2022-10-23T23:49:24.839Z,100041.53
2022-10-23T23:54:28.331Z,100050.22
2022-10-23T23:59:31.678Z,100039.47
